createdAt,value
2022-08-07T00:02:35.502Z,17.10
2022-08-07T00:04:09.567Z,17.10
2022-08-07T00:06:51.276Z,17.10
2022-08-07T00:09:29.154Z,17.00
2022-08-07T00:12:03.489Z,17.00
2022-08-07T00:14:32.085Z,17.00
2022-08-07T00:17:03.350Z,17.00
2022-08-07T00:19:59.723Z,17.00
2022-08-07T00:22:24.907Z,17.00
2022-08-07T00:25:05.357Z,17.00
2022-08-07T00:27:52.759Z,17.00
2022-08-07T00:30:27.121Z,17.00
2022-08-07T00:33:05.204Z,17.00
2022-08-07T00:35:36.749Z,17.00
2022-08-07T00:38:05.293Z,17.10
2022-08-07T00:40:39.373Z,17.10
2022-08-07T00:43:58.661Z,17.10
2022-08-07T00:46:00.448Z,17.00
2022-08-07T00:48:32.411Z,17.00
2022-08-07T00:51:02.871Z,17.10
2022-08-07T00:53:39.137Z,17.10
2022-08-07T00:56:18.783Z,17.20
2022-08-07T00:58:49.609Z,17.10
2022-08-07T01:01:20.674Z,17.00
2022-08-07T01:03:56.411Z,17.00
2022-08-07T01:06:30.497Z,17.00
2022-08-07T01:09:01.493Z,17.00
2022-08-07T01:12:23.406Z,17.00
2022-08-07T01:14:28.815Z,17.00
2022-08-07T01:16:58.543Z,17.00
2022-08-07T01:19:32.580Z,17.00
2022-08-07T01:22:03.122Z,17.00
2022-08-07T01:24:37.464Z,16.90
2022-08-07T01:27:19.410Z,16.90
2022-08-07T01:29:50.487Z,17.00
2022-08-07T01:32:19.165Z,17.00
2022-08-07T01:34:51.578Z,17.00
2022-08-07T01:37:20.095Z,17.00
2022-08-07T01:39:50.490Z,17.00
2022-08-07T01:42:39.810Z,17.10
2022-08-07T01:45:22.757Z,16.90
2022-08-07T01:48:29.157Z,17.00
2022-08-07T01:50:49.894Z,17.00
2022-08-07T01:54:11.954Z,17.00
2022-08-07T01:56:29.896Z,17.00
2022-08-07T01:59:09.853Z,17.00
2022-08-07T02:01:59.780Z,17.00
2022-08-07T02:04:40.005Z,17.00
2022-08-07T02:07:29.395Z,16.90
2022-08-07T02:10:14.856Z,16.90
2022-08-07T02:12:50.008Z,16.90
2022-08-07T02:15:27.887Z,16.90
2022-08-07T02:17:59.792Z,17.00
2022-08-07T02:20:30.675Z,17.00
2022-08-07T02:23:03.305Z,16.90
2022-08-07T02:26:32.365Z,17.00
2022-08-07T02:28:27.277Z,17.00
2022-08-07T02:31:10.362Z,16.90
2022-08-07T02:34:01.729Z,17.00
2022-08-07T02:36:38.110Z,16.80
2022-08-07T02:39:17.354Z,16.90
2022-08-07T02:42:02.185Z,16.80
2022-08-07T02:44:34.798Z,16.80
2022-08-07T02:47:08.026Z,16.80
2022-08-07T02:49:58.723Z,16.80
2022-08-07T02:52:39.541Z,16.80
2022-08-07T02:55:28.501Z,16.80
2022-08-07T02:58:14.662Z,16.80
2022-08-07T03:00:46.847Z,16.80
2022-08-07T03:03:22.676Z,16.80
2022-08-07T03:05:56.392Z,16.80
2022-08-07T03:08:26.713Z,16.80
2022-08-07T03:10:59.150Z,16.80
2022-08-07T03:13:39.021Z,16.80
2022-08-07T03:16:18.793Z,16.70
2022-08-07T03:18:56.511Z,16.70
2022-08-07T03:21:26.663Z,16.70
2022-08-07T03:24:19.218Z,16.80
2022-08-07T03:26:58.854Z,16.70
2022-08-07T03:29:39.958Z,16.70
2022-08-07T03:32:18.354Z,16.70
2022-08-07T03:35:16.660Z,16.60
2022-08-07T03:37:46.257Z,16.70
2022-08-07T03:40:36.028Z,16.70
2022-08-07T03:43:10.070Z,16.80
2022-08-07T03:45:47.872Z,16.80
2022-08-07T03:48:22.576Z,16.80
2022-08-07T03:50:56.101Z,16.90
2022-08-07T03:53:50.048Z,16.80
2022-08-07T03:56:33.338Z,16.80
2022-08-07T03:59:10.024Z,16.70
2022-08-07T04:01:46.147Z,16.70
2022-08-07T04:04:18.931Z,16.70
2022-08-07T04:06:54.630Z,16.70
2022-08-07T04:09:25.449Z,16.70
2022-08-07T04:12:27.984Z,16.50
2022-08-07T04:14:56.321Z,16.50
2022-08-07T04:17:24.686Z,16.60
2022-08-07T04:20:13.978Z,16.60
2022-08-07T04:22:53.363Z,16.60
2022-08-07T04:25:23.925Z,16.70
2022-08-07T04:27:59.052Z,16.70
2022-08-07T04:30:39.410Z,16.80
2022-08-07T04:33:18.334Z,16.80
2022-08-07T04:35:50.272Z,16.80
2022-08-07T04:38:21.992Z,16.80
2022-08-07T04:40:52.832Z,16.90
2022-08-07T04:44:12.165Z,16.90
2022-08-07T04:47:04.400Z,16.90
2022-08-07T04:50:04.048Z,16.80
2022-08-07T04:53:00.128Z,16.90
2022-08-07T04:58:15.885Z,16.90
2022-08-07T05:02:05.800Z,16.80
2022-08-07T05:05:00.856Z,16.90
2022-08-07T05:08:09.217Z,16.90
2022-08-07T05:10:51.020Z,16.90
2022-08-07T05:14:56.350Z,16.90
2022-08-07T05:16:28.810Z,16.90
2022-08-07T05:19:02.221Z,16.90
2022-08-07T05:21:59.899Z,16.90
2022-08-07T05:24:24.631Z,16.90
2022-08-07T05:27:01.884Z,17.00
2022-08-07T05:29:48.053Z,17.00
2022-08-07T05:32:21.017Z,17.00
2022-08-07T05:34:50.527Z,16.90
2022-08-07T05:37:25.433Z,16.90
2022-08-07T05:40:06.598Z,16.90
2022-08-07T05:42:55.530Z,17.00
2022-08-07T05:45:46.572Z,17.00
2022-08-07T05:48:16.575Z,17.10
2022-08-07T05:50:48.034Z,17.10
2022-08-07T05:54:13.998Z,17.20
2022-08-07T05:56:10.153Z,17.20
2022-08-07T05:58:49.180Z,17.20
2022-08-07T06:01:23.637Z,17.20
2022-08-07T06:03:59.009Z,17.30
2022-08-07T06:06:35.726Z,17.20
2022-08-07T06:09:07.312Z,17.30
2022-08-07T06:11:39.955Z,17.30
2022-08-07T06:14:11.822Z,17.30
2022-08-07T06:16:50.655Z,17.20
2022-08-07T06:19:47.460Z,17.40
2022-08-07T06:22:23.402Z,17.50
2022-08-07T06:25:01.411Z,17.50
2022-08-07T06:28:00.115Z,17.50
2022-08-07T06:30:24.381Z,17.50
2022-08-07T06:33:05.057Z,17.40
2022-08-07T06:35:45.346Z,17.50
2022-08-07T06:38:20.600Z,17.70
2022-08-07T06:41:03.577Z,17.70
2022-08-07T06:43:39.975Z,17.70
2022-08-07T06:46:13.911Z,17.60
2022-08-07T06:48:44.669Z,17.80
2022-08-07T06:51:33.128Z,17.80
2022-08-07T06:55:29.298Z,17.80
2022-08-07T06:56:55.580Z,17.90
2022-08-07T07:00:13.372Z,17.90
2022-08-07T07:02:48.351Z,18.00
2022-08-07T07:05:14.814Z,18.00
2022-08-07T07:08:07.194Z,17.80
2022-08-07T07:10:37.980Z,17.80
2022-08-07T07:13:55.606Z,17.90
2022-08-07T07:16:19.732Z,17.90
2022-08-07T07:18:57.481Z,17.80
2022-08-07T07:21:40.445Z,17.80
2022-08-07T07:24:21.441Z,17.70
2022-08-07T07:26:52.580Z,17.70
2022-08-07T07:29:56.058Z,17.70
2022-08-07T07:32:17.741Z,17.70
2022-08-07T07:34:57.044Z,17.80
2022-08-07T07:37:47.180Z,17.70
2022-08-07T07:40:18.550Z,17.70
2022-08-07T07:42:53.723Z,17.60
2022-08-07T07:46:37.489Z,17.60
2022-08-07T07:48:34.737Z,17.70
2022-08-07T07:51:07.810Z,17.70
2022-08-07T07:53:51.429Z,17.90
2022-08-07T07:56:29.969Z,17.90
2022-08-07T07:59:01.556Z,17.90
2022-08-07T08:02:01.707Z,18.00
2022-08-07T08:04:25.886Z,18.10
2022-08-07T08:06:56.224Z,18.10
2022-08-07T08:09:29.215Z,18.20
2022-08-07T08:12:03.746Z,18.20
2022-08-07T08:14:37.084Z,18.20
2022-08-07T08:17:32.343Z,18.30
2022-08-07T08:20:17.975Z,18.30
2022-08-07T08:23:10.565Z,18.30
2022-08-07T08:26:04.580Z,18.20
2022-08-07T08:28:39.168Z,18.10
2022-08-07T08:31:22.822Z,18.10
2022-08-07T08:34:08.956Z,18.00
2022-08-07T08:36:46.197Z,18.10
2022-08-07T08:39:15.339Z,18.20
2022-08-07T08:42:15.305Z,18.30
2022-08-07T08:45:58.510Z,18.20
2022-08-07T08:48:35.643Z,18.20
2022-08-07T08:51:26.155Z,18.10
2022-08-07T08:54:36.850Z,18.00
2022-08-07T08:57:11.383Z,18.00
2022-08-07T08:59:50.897Z,18.10
2022-08-07T09:02:36.576Z,18.20
2022-08-07T09:05:14.663Z,18.40
2022-08-07T09:08:02.403Z,18.50
2022-08-07T09:11:00.560Z,18.60
2022-08-07T09:13:47.522Z,18.60
2022-08-07T09:16:34.393Z,18.50
2022-08-07T09:19:03.597Z,18.50
2022-08-07T09:22:09.894Z,18.60
2022-08-07T09:24:58.708Z,18.70
2022-08-07T09:28:02.036Z,18.60
2022-08-07T09:30:46.703Z,18.60
2022-08-07T09:33:57.943Z,18.70
2022-08-07T09:36:33.537Z,18.60
2022-08-07T09:39:54.532Z,18.90
2022-08-07T09:42:22.922Z,18.90
2022-08-07T09:47:42.380Z,18.90
2022-08-07T09:48:19.228Z,19.00
2022-08-07T09:52:10.209Z,19.10
2022-08-07T09:54:16.437Z,19.10
2022-08-07T09:56:56.301Z,19.30
2022-08-07T10:00:00.680Z,19.30
2022-08-07T10:02:58.500Z,19.30
2022-08-07T10:05:59.253Z,19.40
2022-08-07T10:08:27.147Z,19.50
2022-08-07T10:12:03.127Z,19.70
2022-08-07T10:14:40.478Z,19.60
2022-08-07T10:17:28.917Z,20.00
2022-08-07T10:20:32.819Z,20.30
2022-08-07T10:23:10.919Z,20.30
2022-08-07T10:25:54.048Z,20.20
2022-08-07T10:29:12.811Z,19.90
2022-08-07T10:32:51.402Z,19.70
2022-08-07T10:35:20.460Z,19.60
2022-08-07T10:38:36.214Z,19.50
2022-08-07T10:41:51.680Z,19.40
2022-08-07T10:44:54.590Z,19.30
2022-08-07T10:47:52.598Z,19.30
2022-08-07T10:50:35.061Z,19.50
2022-08-07T10:53:21.541Z,19.40
2022-08-07T10:56:11.116Z,19.30
2022-08-07T10:59:13.595Z,19.30
2022-08-07T11:02:32.752Z,19.20
2022-08-07T11:05:11.413Z,19.20
2022-08-07T11:08:01.287Z,19.30
2022-08-07T11:10:39.535Z,19.30
2022-08-07T11:14:43.606Z,19.40
2022-08-07T11:16:37.171Z,19.50
2022-08-07T11:19:38.570Z,19.50
2022-08-07T11:22:32.205Z,19.40
2022-08-07T11:25:09.100Z,19.30
2022-08-07T11:28:07.536Z,19.30
2022-08-07T11:31:08.815Z,19.40
2022-08-07T11:34:13.119Z,19.40
2022-08-07T11:36:56.298Z,19.50
2022-08-07T11:39:59.232Z,19.60
2022-08-07T11:42:45.350Z,19.70
2022-08-07T11:45:20.604Z,20.00
2022-08-07T11:48:29.460Z,20.10
2022-08-07T11:51:41.733Z,20.10
2022-08-07T11:54:46.494Z,20.10
2022-08-07T11:57:59.703Z,20.20
2022-08-07T12:01:01.864Z,20.20
2022-08-07T12:03:42.077Z,20.20
2022-08-07T12:06:39.164Z,20.20
2022-08-07T12:09:26.196Z,20.30
2022-08-07T12:12:14.370Z,20.20
2022-08-07T12:14:56.294Z,20.10
2022-08-07T12:17:59.598Z,20.20
2022-08-07T12:21:07.144Z,20.50
2022-08-07T12:24:07.523Z,20.60
2022-08-07T12:26:53.021Z,20.70
2022-08-07T12:29:40.257Z,20.70
2022-08-07T12:32:19.578Z,20.80
2022-08-07T12:34:55.618Z,20.80
2022-08-07T12:37:28.249Z,20.90
2022-08-07T12:40:46.396Z,21.00
2022-08-07T12:44:03.786Z,21.00
2022-08-07T12:46:04.209Z,21.00
2022-08-07T12:48:53.744Z,20.80
2022-08-07T12:51:46.423Z,20.90
2022-08-07T12:54:38.924Z,20.80
2022-08-07T12:57:11.460Z,20.70
2022-08-07T12:59:55.030Z,20.70
2022-08-07T13:02:47.188Z,20.70
2022-08-07T13:06:03.481Z,20.80
2022-08-07T13:08:43.274Z,20.60
2022-08-07T13:12:02.792Z,20.60
2022-08-07T13:15:08.162Z,20.50
2022-08-07T13:18:03.569Z,20.40
2022-08-07T13:20:41.290Z,20.30
2022-08-07T13:24:03.932Z,20.30
2022-08-07T13:26:25.691Z,20.30
2022-08-07T13:28:59.388Z,20.40
2022-08-07T13:31:55.284Z,20.40
2022-08-07T13:34:35.479Z,20.40
2022-08-07T13:37:59.106Z,20.50
2022-08-07T13:40:47.074Z,20.60
2022-08-07T13:43:21.699Z,20.60
2022-08-07T13:46:11.831Z,20.80
2022-08-07T13:48:51.884Z,20.70
2022-08-07T13:52:04.756Z,20.80
2022-08-07T13:54:23.783Z,20.80
2022-08-07T13:56:59.473Z,20.90
2022-08-07T13:59:32.946Z,20.90
2022-08-07T14:02:10.787Z,20.90
2022-08-07T14:04:54.454Z,21.00
2022-08-07T14:07:28.263Z,21.10
2022-08-07T14:10:17.822Z,21.00
2022-08-07T14:13:03.772Z,21.00
2022-08-07T14:15:44.010Z,21.00
2022-08-07T14:18:28.527Z,21.00
2022-08-07T14:22:00.397Z,21.00
2022-08-07T14:24:33.466Z,21.00
2022-08-07T14:27:16.242Z,21.00
2022-08-07T14:30:07.595Z,21.00
2022-08-07T14:32:54.740Z,21.10
2022-08-07T14:35:44.798Z,21.10
2022-08-07T14:38:26.552Z,21.00
2022-08-07T14:41:04.213Z,21.00
2022-08-07T14:46:31.078Z,20.80
2022-08-07T14:49:55.680Z,20.70
2022-08-07T14:52:04.820Z,20.60
2022-08-07T14:54:43.546Z,20.50
2022-08-07T14:57:19.645Z,20.40
2022-08-07T15:00:03.172Z,20.40
2022-08-07T15:05:23.587Z,20.10
2022-08-07T15:07:52.822Z,20.10
2022-08-07T15:13:25.430Z,19.90
2022-08-07T15:16:10.897Z,19.80
2022-08-07T15:18:53.490Z,19.70
2022-08-07T15:27:19.357Z,19.50
2022-08-07T15:30:16.382Z,19.50
2022-08-07T15:32:50.691Z,19.40
2022-08-07T15:36:01.274Z,19.40
2022-08-07T15:38:51.383Z,19.40
2022-08-07T15:42:43.392Z,19.40
2022-08-07T15:44:23.733Z,19.20
2022-08-07T15:47:08.966Z,19.20
2022-08-07T15:52:38.620Z,19.10
2022-08-07T15:55:14.574Z,19.00
2022-08-07T15:57:51.564Z,19.20
2022-08-07T16:00:33.757Z,19.20
2022-08-07T16:03:06.603Z,19.10
2022-08-07T16:05:50.536Z,19.20
2022-08-07T16:08:32.925Z,19.40
2022-08-07T16:11:28.761Z,19.50
2022-08-07T16:14:09.310Z,19.50
2022-08-07T16:17:02.119Z,19.60
2022-08-07T16:19:59.279Z,19.80
2022-08-07T16:22:54.957Z,20.10
2022-08-07T16:25:53.069Z,20.20
2022-08-07T16:29:18.246Z,20.50
2022-08-07T16:31:51.868Z,20.50
2022-08-07T16:34:48.443Z,20.50
2022-08-07T16:38:06.695Z,20.50
2022-08-07T16:40:56.805Z,20.50
2022-08-07T16:44:02.347Z,20.40
2022-08-07T16:47:14.061Z,20.30
2022-08-07T16:50:35.679Z,20.00
2022-08-07T16:54:01.159Z,19.90
2022-08-07T16:56:48.925Z,19.90
2022-08-07T16:59:46.629Z,19.80
2022-08-07T17:02:53.831Z,19.80
2022-08-07T17:06:01.732Z,19.80
2022-08-07T17:09:10.335Z,19.80
2022-08-07T17:12:04.499Z,19.90
2022-08-07T17:15:02.314Z,19.90
2022-08-07T17:17:46.228Z,19.90
2022-08-07T17:20:35.836Z,19.80
2022-08-07T17:23:31.943Z,19.70
2022-08-07T17:26:31.349Z,19.80
2022-08-07T17:29:18.389Z,19.60
2022-08-07T17:32:35.272Z,19.70
2022-08-07T17:35:54.791Z,19.70
2022-08-07T17:38:59.219Z,19.70
2022-08-07T17:42:03.550Z,19.70
2022-08-07T17:44:54.891Z,19.60
2022-08-07T17:47:54.016Z,19.60
2022-08-07T17:50:51.448Z,19.60
2022-08-07T17:54:01.768Z,19.60
2022-08-07T17:56:49.726Z,19.60
2022-08-07T17:59:35.812Z,19.40
2022-08-07T18:02:23.454Z,19.20
2022-08-07T18:04:54.263Z,19.20
2022-08-07T18:07:24.478Z,19.00
2022-08-07T18:10:06.762Z,18.90
2022-08-07T18:13:01.984Z,18.90
2022-08-07T18:15:53.771Z,18.80
2022-08-07T18:19:02.627Z,18.80
2022-08-07T18:21:55.163Z,18.70
2022-08-07T18:24:44.355Z,18.70
2022-08-07T18:27:38.892Z,18.60
2022-08-07T18:30:32.987Z,18.60
2022-08-07T18:33:37.778Z,18.60
2022-08-07T18:36:33.354Z,18.50
2022-08-07T18:40:06.439Z,18.50
2022-08-07T18:42:30.646Z,18.50
2022-08-07T18:45:43.907Z,18.40
2022-08-07T18:50:05.625Z,18.40
2022-08-07T18:52:25.416Z,18.50
2022-08-07T18:54:38.964Z,18.40
2022-08-07T18:57:31.596Z,18.40
2022-08-07T19:00:32.545Z,18.40
2022-08-07T19:03:12.041Z,18.50
2022-08-07T19:06:03.799Z,18.40
2022-08-07T19:08:50.115Z,18.40
2022-08-07T19:11:35.687Z,18.40
2022-08-07T19:14:26.241Z,18.40
2022-08-07T19:17:09.296Z,18.40
2022-08-07T19:19:51.205Z,18.40
2022-08-07T19:22:31.213Z,18.50
2022-08-07T19:25:06.461Z,18.40
2022-08-07T19:28:57.639Z,18.30
2022-08-07T19:31:03.259Z,18.30
2022-08-07T19:33:33.649Z,18.40
2022-08-07T19:36:04.359Z,18.40
2022-08-07T19:38:35.298Z,18.40
2022-08-07T19:41:39.345Z,18.40
2022-08-07T19:44:22.063Z,18.40
2022-08-07T19:46:57.993Z,18.40
2022-08-07T19:49:57.097Z,18.40
2022-08-07T19:52:27.847Z,18.40
2022-08-07T19:55:11.056Z,18.40
2022-08-07T19:58:01.692Z,18.30
2022-08-07T20:00:31.319Z,18.30
2022-08-07T20:03:35.354Z,18.30
2022-08-07T20:06:00.691Z,18.30
2022-08-07T20:08:34.156Z,18.20
2022-08-07T20:11:09.875Z,18.20
2022-08-07T20:13:53.037Z,18.20
2022-08-07T20:16:35.189Z,18.20
2022-08-07T20:19:10.852Z,18.20
2022-08-07T20:21:47.799Z,18.20
2022-08-07T20:24:36.521Z,18.20
2022-08-07T20:27:11.844Z,18.20
2022-08-07T20:29:56.758Z,18.20
2022-08-07T20:32:39.985Z,18.20
2022-08-07T20:35:17.770Z,18.20
2022-08-07T20:37:59.553Z,18.20
2022-08-07T20:40:34.770Z,18.20
2022-08-07T20:43:09.427Z,18.20
2022-08-07T20:46:28.097Z,18.20
2022-08-07T20:48:36.218Z,18.20
2022-08-07T20:51:09.510Z,18.20
2022-08-07T20:54:03.434Z,18.20
2022-08-07T20:56:33.489Z,18.20
2022-08-07T20:59:05.081Z,18.10
2022-08-07T21:01:46.012Z,18.20
2022-08-07T21:04:27.855Z,18.20
2022-08-07T21:07:04.119Z,18.10
2022-08-07T21:09:53.082Z,18.10
2022-08-07T21:12:31.611Z,18.00
2022-08-07T21:15:05.503Z,18.00
2022-08-07T21:18:03.662Z,18.00
2022-08-07T21:20:30.428Z,18.00
2022-08-07T21:23:08.580Z,18.00
2022-08-07T21:25:56.678Z,18.00
2022-08-07T21:28:50.907Z,18.00
2022-08-07T21:32:41.756Z,18.00
2022-08-07T21:34:48.736Z,17.90
2022-08-07T21:37:25.633Z,17.80
2022-08-07T21:40:08.875Z,17.80
2022-08-07T21:43:07.280Z,17.80
2022-08-07T21:46:08.452Z,17.70
2022-08-07T21:48:57.016Z,17.70
2022-08-07T21:51:51.457Z,17.70
2022-08-07T21:54:34.872Z,17.60
2022-08-07T21:57:16.103Z,17.50
2022-08-07T22:00:21.999Z,17.50
2022-08-07T22:03:16.707Z,17.50
2022-08-07T22:06:02.039Z,17.50
2022-08-07T22:08:39.280Z,17.40
2022-08-07T22:11:08.536Z,17.40
2022-08-07T22:13:52.740Z,17.40
2022-08-07T22:16:59.910Z,17.40
2022-08-07T22:20:00.404Z,17.50
2022-08-07T22:22:39.996Z,17.40
2022-08-07T22:25:39.706Z,17.40
2022-08-07T22:28:32.067Z,17.40
2022-08-07T22:31:13.071Z,17.30
2022-08-07T22:34:13.747Z,17.30
2022-08-07T22:37:04.176Z,17.30
2022-08-07T22:39:52.737Z,17.30
2022-08-07T22:42:54.089Z,17.30
2022-08-07T22:46:04.531Z,17.40
2022-08-07T22:49:02.042Z,17.30
2022-08-07T22:52:08.045Z,17.40
2022-08-07T22:54:49.189Z,17.30
2022-08-07T22:57:45.202Z,17.30
2022-08-07T23:00:28.208Z,17.20
2022-08-07T23:03:57.587Z,17.20
2022-08-07T23:06:51.889Z,17.20
2022-08-07T23:10:01.084Z,17.10
2022-08-07T23:12:34.308Z,17.10
2022-08-07T23:16:06.419Z,17.00
2022-08-07T23:19:14.045Z,16.90
2022-08-07T23:21:59.107Z,16.80
2022-08-07T23:24:45.438Z,16.90
2022-08-07T23:27:36.633Z,16.80
2022-08-07T23:30:42.589Z,16.80
2022-08-07T23:34:21.158Z,16.80
2022-08-07T23:37:17.900Z,16.80
2022-08-07T23:39:55.738Z,16.80
2022-08-07T23:42:41.803Z,16.80
2022-08-07T23:46:03.562Z,16.80
2022-08-07T23:49:19.311Z,16.80
2022-08-07T23:53:00.712Z,16.70
2022-08-07T23:54:55.841Z,16.70
2022-08-07T23:57:28.174Z,16.70
